sensor_id;sensor_type;location;lat;lon;timestamp;pressure;altitude;pressure_sealevel;temperature;humidity
53647;BME280;39550;52.230;5.194;2023-05-09T00:01:32;101655.06;;;14.71;81.56
53647;BME280;39550;52.230;5.194;2023-05-09T00:03:58;101650.72;;;14.70;82.15
53647;BME280;39550;52.230;5.194;2023-05-09T00:06:24;101650.78;;;14.72;81.80
53647;BME280;39550;52.230;5.194;2023-05-09T00:08:51;101643.84;;;14.71;81.88
53647;BME280;39550;52.230;5.194;2023-05-09T00:11:17;101634.31;;;14.70;82.17
53647;BME280;39550;52.230;5.194;2023-05-09T00:13:42;101636.06;;;14.68;82.34
53647;BME280;39550;52.230;5.194;2023-05-09T00:16:08;101630.88;;;14.68;81.53
53647;BME280;39550;52.230;5.194;2023-05-09T00:18:34;101638.66;;;14.68;82.49
53647;BME280;39550;52.230;5.194;2023-05-09T00:21:01;101623.94;;;14.67;82.05
53647;BME280;39550;52.230;5.194;2023-05-09T00:23:29;101621.34;;;14.67;82.05
53647;BME280;39550;52.230;5.194;2023-05-09T00:25:54;101621.34;;;14.67;81.71
53647;BME280;39550;52.230;5.194;2023-05-09T00:28:19;101619.59;;;14.66;81.79
53647;BME280;39550;52.230;5.194;2023-05-09T00:30:45;101613.56;;;14.63;81.91
53647;BME280;39550;52.230;5.194;2023-05-09T00:33:10;101612.66;;;14.64;82.02
53647;BME280;39550;52.230;5.194;2023-05-09T00:35:36;101616.16;;;14.63;82.35
53647;BME280;39550;52.230;5.194;2023-05-09T00:38:01;101616.16;;;14.63;81.82
53647;BME280;39550;52.230;5.194;2023-05-09T00:40:26;101610.97;;;14.63;82.13
53647;BME280;39550;52.230;5.194;2023-05-09T00:42:52;101614.41;;;14.62;81.88
53647;BME280;39550;52.230;5.194;2023-05-09T00:45:17;101609.22;;;14.62;81.66
53647;BME280;39550;52.230;5.194;2023-05-09T00:47:42;101606.59;;;14.61;82.09
53647;BME280;39550;52.230;5.194;2023-05-09T00:50:08;101600.53;;;14.60;81.70
53647;BME280;39550;52.230;5.194;2023-05-09T00:52:34;101605.72;;;14.60;81.54
53647;BME280;39550;52.230;5.194;2023-05-09T00:55:01;101599.66;;;14.60;81.80
53647;BME280;39550;52.230;5.194;2023-05-09T00:57:26;101601.41;;;14.59;81.52
53647;BME280;39550;52.230;5.194;2023-05-09T00:59:51;101597.06;;;14.58;81.79
53647;BME280;39550;52.230;5.194;2023-05-09T01:02:17;101591.88;;;14.58;82.19
53647;BME280;39550;52.230;5.194;2023-05-09T01:04:44;101581.47;;;14.52;81.63
53647;BME280;39550;52.230;5.194;2023-05-09T01:07:21;101584.94;;;14.57;82.43
53647;BME280;39550;52.230;5.194;2023-05-09T01:09:55;101580.63;;;14.56;82.14
53647;BME280;39550;52.230;5.194;2023-05-09T01:12:36;101574.59;;;14.57;81.81
53647;BME280;39550;52.230;5.194;2023-05-09T01:18:11;101571.97;;;14.54;81.81
53647;BME280;39550;52.230;5.194;2023-05-09T01:20:52;101566.78;;;14.54;82.25
53647;BME280;39550;52.230;5.194;2023-05-09T01:26:24;101567.66;;;14.53;81.93
53647;BME280;39550;52.230;5.194;2023-05-09T01:29:16;101562.47;;;14.53;82.27
53647;BME280;39550;52.230;5.194;2023-05-09T01:31:47;101566.78;;;14.53;82.69
53647;BME280;39550;52.230;5.194;2023-05-09T01:34:14;101556.41;;;14.51;82.47
53647;BME280;39550;52.230;5.194;2023-05-09T01:36:41;101548.63;;;14.51;81.98
53647;BME280;39550;52.230;5.194;2023-05-09T01:39:10;101546.91;;;14.47;81.59
53647;BME280;39550;52.230;5.194;2023-05-09T01:41:36;101551.22;;;14.50;82.00
53647;BME280;39550;52.230;5.194;2023-05-09T01:44:05;101552.09;;;14.50;82.10
53647;BME280;39550;52.230;5.194;2023-05-09T01:46:31;101548.59;;;14.48;82.04
53647;BME280;39550;52.230;5.194;2023-05-09T01:48:56;101538.22;;;14.45;81.95
53647;BME280;39550;52.230;5.194;2023-05-09T01:51:23;101541.72;;;14.47;82.60
53647;BME280;39550;52.230;5.194;2023-05-09T01:53:50;101538.22;;;14.46;82.12
53647;BME280;39550;52.230;5.194;2023-05-09T01:56:18;101536.53;;;14.45;82.16
53647;BME280;39550;52.230;5.194;2023-05-09T01:58:45;101534.78;;;14.43;82.14
53647;BME280;39550;52.230;5.194;2023-05-09T02:01:13;101529.59;;;14.43;82.35
53647;BME280;39550;52.230;5.194;2023-05-09T02:03:39;101533.03;;;14.45;81.99
53647;BME280;39550;52.230;5.194;2023-05-09T02:06:06;101527.84;;;14.42;81.69
53647;BME280;39550;52.230;5.194;2023-05-09T02:08:32;101521.81;;;14.43;81.67
53647;BME280;39550;52.230;5.194;2023-05-09T02:10:58;101518.34;;;14.44;82.25
53647;BME280;39550;52.230;5.194;2023-05-09T02:13:23;101517.50;;;14.42;81.92
53647;BME280;39550;52.230;5.194;2023-05-09T02:15:49;101517.50;;;14.42;82.12
53647;BME280;39550;52.230;5.194;2023-05-09T02:18:15;101512.28;;;14.42;82.38
53647;BME280;39550;52.230;5.194;2023-05-09T02:20:41;101515.75;;;14.41;82.85
53647;BME280;39550;52.230;5.194;2023-05-09T02:23:06;101513.16;;;14.41;82.05
53647;BME280;39550;52.230;5.194;2023-05-09T02:25:33;101507.97;;;14.39;81.93
53647;BME280;39550;52.230;5.194;2023-05-09T02:27:58;101512.28;;;14.39;81.66
53647;BME280;39550;52.230;5.194;2023-05-09T02:30:25;101506.22;;;14.38;82.12
53647;BME280;39550;52.230;5.194;2023-05-09T02:33:01;101501.94;;;14.39;82.44
53647;BME280;39550;52.230;5.194;2023-05-09T02:35:27;101505.38;;;14.38;81.80
53647;BME280;39550;52.230;5.194;2023-05-09T02:37:53;101493.25;;;14.37;81.87
53647;BME280;39550;52.230;5.194;2023-05-09T02:40:19;101507.13;;;14.37;81.63
53647;BME280;39550;52.230;5.194;2023-05-09T02:42:44;101506.22;;;14.37;81.42
53647;BME280;39550;52.230;5.194;2023-05-09T02:45:10;101507.97;;;14.35;81.46
53647;BME280;39550;52.230;5.194;2023-05-09T02:47:36;101504.47;;;14.36;82.30
53647;BME280;39550;52.230;5.194;2023-05-09T02:50:02;101495.00;;;14.35;81.90
53647;BME280;39550;52.230;5.194;2023-05-09T02:52:28;101499.31;;;14.34;82.26
53647;BME280;39550;52.230;5.194;2023-05-09T02:54:53;101497.59;;;14.35;81.93
53647;BME280;39550;52.230;5.194;2023-05-09T02:57:19;101498.44;;;14.34;81.52
53647;BME280;39550;52.230;5.194;2023-05-09T02:59:45;101492.41;;;14.33;82.55
53647;BME280;39550;52.230;5.194;2023-05-09T03:02:10;101472.53;;;14.30;82.26
53647;BME280;39550;52.230;5.194;2023-05-09T03:04:35;101482.00;;;14.31;81.58
53647;BME280;39550;52.230;5.194;2023-05-09T03:07:01;101466.44;;;14.31;82.21
53647;BME280;39550;52.230;5.194;2023-05-09T03:09:27;101462.16;;;14.30;81.59
53647;BME280;39550;52.230;5.194;2023-05-09T03:11:54;101460.41;;;14.29;82.22
53647;BME280;39550;52.230;5.194;2023-05-09T03:14:20;101457.81;;;14.28;81.73
53647;BME280;39550;52.230;5.194;2023-05-09T03:16:45;101456.97;;;14.30;81.82
53647;BME280;39550;52.230;5.194;2023-05-09T03:19:11;101461.25;;;14.28;82.53
53647;BME280;39550;52.230;5.194;2023-05-09T03:21:36;101456.06;;;14.28;81.80
53647;BME280;39550;52.230;5.194;2023-05-09T03:24:01;101451.78;;;14.27;82.17
53647;BME280;39550;52.230;5.194;2023-05-09T03:26:29;101448.31;;;14.25;81.72
53647;BME280;39550;52.230;5.194;2023-05-09T03:28:54;101446.59;;;14.27;82.20
53647;BME280;39550;52.230;5.194;2023-05-09T03:31:19;101450.03;;;14.26;81.79
53647;BME280;39550;52.230;5.194;2023-05-09T03:33:44;101438.78;;;14.24;82.11
53647;BME280;39550;52.230;5.194;2023-05-09T03:36:10;101434.50;;;14.26;82.13
53647;BME280;39550;52.230;5.194;2023-05-09T03:38:35;101440.53;;;14.24;81.74
53647;BME280;39550;52.230;5.194;2023-05-09T03:41:01;101429.31;;;14.23;82.36
53647;BME280;39550;52.230;5.194;2023-05-09T03:43:26;101420.63;;;14.24;82.01
53647;BME280;39550;52.230;5.194;2023-05-09T03:45:51;101418.94;;;14.23;81.96
53647;BME280;39550;52.230;5.194;2023-05-09T03:48:17;101405.09;;;14.21;82.31
53647;BME280;39550;52.230;5.194;2023-05-09T03:50:42;101407.69;;;14.23;82.34
53647;BME280;39550;52.230;5.194;2023-05-09T03:53:08;101406.81;;;14.22;82.47
53647;BME280;39550;52.230;5.194;2023-05-09T03:55:33;101410.28;;;14.21;81.56
53647;BME280;39550;52.230;5.194;2023-05-09T03:57:59;101410.28;;;14.21;82.40
53647;BME280;39550;52.230;5.194;2023-05-09T04:00:24;101407.69;;;14.21;82.56
53647;BME280;39550;52.230;5.194;2023-05-09T04:02:51;101410.28;;;14.21;81.78
53647;BME280;39550;52.230;5.194;2023-05-09T04:05:17;101407.69;;;14.20;82.23
53647;BME280;39550;52.230;5.194;2023-05-09T04:07:42;101406.84;;;14.19;82.06
53647;BME280;39550;52.230;5.194;2023-05-09T04:10:08;101399.06;;;14.19;81.93
53647;BME280;39550;52.230;5.194;2023-05-09T04:12:33;101399.03;;;14.18;81.83
53647;BME280;39550;52.230;5.194;2023-05-09T04:14:59;101397.31;;;14.15;81.45
53647;BME280;39550;52.230;5.194;2023-05-09T04:17:24;101387.81;;;14.16;82.58
53647;BME280;39550;52.230;5.194;2023-05-09T04:19:50;101392.97;;;14.17;81.98
53647;BME280;39550;52.230;5.194;2023-05-09T04:22:15;101398.16;;;14.17;82.56
53647;BME280;39550;52.230;5.194;2023-05-09T04:24:41;101399.03;;;14.16;82.23
53647;BME280;39550;52.230;5.194;2023-05-09T04:27:06;101394.72;;;14.17;81.72
53647;BME280;39550;52.230;5.194;2023-05-09T04:29:32;101392.97;;;14.17;81.51
53647;BME280;39550;52.230;5.194;2023-05-09T04:31:58;101394.72;;;14.15;82.17
53647;BME280;39550;52.230;5.194;2023-05-09T04:34:23;101375.69;;;14.07;81.92
53647;BME280;39550;52.230;5.194;2023-05-09T04:36:50;101391.25;;;14.16;82.16
53647;BME280;39550;52.230;5.194;2023-05-09T04:39:16;101384.34;;;14.15;81.97
53647;BME280;39550;52.230;5.194;2023-05-09T04:41:41;101386.91;;;14.13;81.91
53647;BME280;39550;52.230;5.194;2023-05-09T04:44:16;101379.19;;;14.15;82.03
53647;BME280;39550;52.230;5.194;2023-05-09T04:46:42;101373.09;;;14.14;81.42
53647;BME280;39550;52.230;5.194;2023-05-09T04:49:08;101378.28;;;14.13;81.89
53647;BME280;39550;52.230;5.194;2023-05-09T04:51:33;101370.50;;;14.13;81.82
53647;BME280;39550;52.230;5.194;2023-05-09T04:53:59;101368.81;;;14.15;81.76
53647;BME280;39550;52.230;5.194;2023-05-09T04:56:24;101365.31;;;14.16;81.78
53647;BME280;39550;52.230;5.194;2023-05-09T04:58:50;101364.47;;;14.16;81.57
53647;BME280;39550;52.230;5.194;2023-05-09T05:01:15;101358.44;;;14.15;81.44
53647;BME280;39550;52.230;5.194;2023-05-09T05:03:41;101360.16;;;14.16;81.88
53647;BME280;39550;52.230;5.194;2023-05-09T05:06:06;101358.44;;;14.15;81.46
53647;BME280;39550;52.230;5.194;2023-05-09T05:08:32;101354.97;;;14.16;81.26
53647;BME280;39550;52.230;5.194;2023-05-09T05:10:57;101343.75;;;14.14;81.59
53647;BME280;39550;52.230;5.194;2023-05-09T05:13:23;101354.09;;;14.14;81.79
53647;BME280;39550;52.230;5.194;2023-05-09T05:15:48;101353.25;;;14.15;81.41
53647;BME280;39550;52.230;5.194;2023-05-09T05:18:14;101339.41;;;14.16;82.39
53647;BME280;39550;52.230;5.194;2023-05-09T05:20:40;101334.22;;;14.16;82.47
53647;BME280;39550;52.230;5.194;2023-05-09T05:23:06;101335.09;;;14.18;81.82
53647;BME280;39550;52.230;5.194;2023-05-09T05:25:31;101330.78;;;14.17;82.16
53647;BME280;39550;52.230;5.194;2023-05-09T05:27:56;101330.78;;;14.17;81.23
53647;BME280;39550;52.230;5.194;2023-05-09T05:30:21;101327.34;;;14.18;81.21
53647;BME280;39550;52.230;5.194;2023-05-09T05:32:47;101331.66;;;14.19;81.35
53647;BME280;39550;52.230;5.194;2023-05-09T05:35:12;101322.16;;;14.18;81.60
53647;BME280;39550;52.230;5.194;2023-05-09T05:37:41;101323.88;;;14.19;81.53
53647;BME280;39550;52.230;5.194;2023-05-09T05:40:06;101315.22;;;14.20;81.58
53647;BME280;39550;52.230;5.194;2023-05-09T05:42:32;101318.69;;;14.19;81.24
53647;BME280;39550;52.230;5.194;2023-05-09T05:44:58;101319.56;;;14.18;81.72
53647;BME280;39550;52.230;5.194;2023-05-09T05:47:34;101313.50;;;14.16;81.44
53647;BME280;39550;52.230;5.194;2023-05-09T05:49:59;101308.31;;;14.16;81.24
53647;BME280;39550;52.230;5.194;2023-05-09T05:52:25;101311.78;;;14.17;81.05
53647;BME280;39550;52.230;5.194;2023-05-09T05:54:52;101306.59;;;14.15;81.48
53647;BME280;39550;52.230;5.194;2023-05-09T05:57:17;101303.13;;;14.13;82.64
53647;BME280;39550;52.230;5.194;2023-05-09T05:59:42;101301.41;;;14.01;83.47
53647;BME280;39550;52.230;5.194;2023-05-09T06:02:08;101303.97;;;13.93;83.96
53647;BME280;39550;52.230;5.194;2023-05-09T06:04:33;101302.25;;;13.92;84.09
53647;BME280;39550;52.230;5.194;2023-05-09T06:06:58;101297.91;;;13.91;84.46
53647;BME280;39550;52.230;5.194;2023-05-09T06:09:24;101294.47;;;13.92;84.53
53647;BME280;39550;52.230;5.194;2023-05-09T06:11:49;101290.13;;;13.91;84.35
53647;BME280;39550;52.230;5.194;2023-05-09T06:14:14;101284.97;;;13.91;84.79
53647;BME280;39550;52.230;5.194;2023-05-09T06:16:40;101282.38;;;13.88;84.91
53647;BME280;39550;52.230;5.194;2023-05-09T06:19:05;101291.03;;;13.90;85.28
53647;BME280;39550;52.230;5.194;2023-05-09T06:21:30;101279.78;;;13.88;85.31
53647;BME280;39550;52.230;5.194;2023-05-09T06:23:58;101284.97;;;13.88;84.66
53647;BME280;39550;52.230;5.194;2023-05-09T06:26:23;101274.59;;;13.90;85.12
53647;BME280;39550;52.230;5.194;2023-05-09T06:28:48;101275.47;;;13.90;85.07
53647;BME280;39550;52.230;5.194;2023-05-09T06:31:14;101278.06;;;13.93;85.48
53647;BME280;39550;52.230;5.194;2023-05-09T06:33:39;101272.03;;;13.94;85.17
53647;BME280;39550;52.230;5.194;2023-05-09T06:36:04;101268.56;;;13.95;84.73
53647;BME280;39550;52.230;5.194;2023-05-09T06:38:30;101265.09;;;13.96;84.03
53647;BME280;39550;52.230;5.194;2023-05-09T06:40:55;101265.09;;;13.96;84.33
53647;BME280;39550;52.230;5.194;2023-05-09T06:43:20;101264.25;;;13.98;83.84
53647;BME280;39550;52.230;5.194;2023-05-09T06:45:46;101262.53;;;13.98;83.88
53647;BME280;39550;52.230;5.194;2023-05-09T06:48:11;101268.59;;;13.99;83.81
53647;BME280;39550;52.230;5.194;2023-05-09T06:50:37;101253.88;;;13.98;83.71
53647;BME280;39550;52.230;5.194;2023-05-09T06:53:02;101253.88;;;13.99;83.25
53647;BME280;39550;52.230;5.194;2023-05-09T06:55:28;101254.75;;;14.00;83.43
53647;BME280;39550;52.230;5.194;2023-05-09T06:57:53;101244.38;;;14.00;82.88
53647;BME280;39550;52.230;5.194;2023-05-09T07:00:19;101247.84;;;14.00;83.50
53647;BME280;39550;52.230;5.194;2023-05-09T07:02:44;101247.84;;;14.02;82.98
53647;BME280;39550;52.230;5.194;2023-05-09T07:05:10;101247.00;;;14.01;83.42
53647;BME280;39550;52.230;5.194;2023-05-09T07:07:35;101238.34;;;14.01;82.63
53647;BME280;39550;52.230;5.194;2023-05-09T07:10:01;101241.81;;;14.01;83.42
53647;BME280;39550;52.230;5.194;2023-05-09T07:12:30;101239.22;;;14.01;83.03
53647;BME280;39550;52.230;5.194;2023-05-09T07:14:55;101242.66;;;14.02;83.40
53647;BME280;39550;52.230;5.194;2023-05-09T07:17:20;101236.63;;;14.01;82.67
53647;BME280;39550;52.230;5.194;2023-05-09T07:19:47;101234.91;;;14.00;82.22
53647;BME280;39550;52.230;5.194;2023-05-09T07:22:12;101234.00;;;14.00;82.80
53647;BME280;39550;52.230;5.194;2023-05-09T07:24:37;101230.56;;;14.01;82.34
53647;BME280;39550;52.230;5.194;2023-05-09T07:27:03;101225.38;;;14.01;82.55
53647;BME280;39550;52.230;5.194;2023-05-09T07:29:28;101227.13;;;14.02;82.21
53647;BME280;39550;52.230;5.194;2023-05-09T07:31:53;101227.13;;;14.02;83.31
53647;BME280;39550;52.230;5.194;2023-05-09T07:34:19;101227.13;;;14.02;82.08
53647;BME280;39550;52.230;5.194;2023-05-09T07:36:44;101221.09;;;14.01;82.30
53647;BME280;39550;52.230;5.194;2023-05-09T07:39:10;101226.25;;;14.01;81.81
53647;BME280;39550;52.230;5.194;2023-05-09T07:41:35;101227.97;;;14.01;82.22
53647;BME280;39550;52.230;5.194;2023-05-09T07:44:00;101218.47;;;14.00;82.70
53647;BME280;39550;52.230;5.194;2023-05-09T07:46:26;101220.19;;;14.02;82.45
53647;BME280;39550;52.230;5.194;2023-05-09T07:48:51;101215.91;;;14.01;82.77
53647;BME280;39550;52.230;5.194;2023-05-09T07:51:16;101219.34;;;14.02;82.46
53647;BME280;39550;52.230;5.194;2023-05-09T07:53:42;101207.25;;;14.05;83.19
53647;BME280;39550;52.230;5.194;2023-05-09T07:56:07;101203.78;;;14.05;82.85
53647;BME280;39550;52.230;5.194;2023-05-09T07:58:32;101201.19;;;14.05;82.00
53647;BME280;39550;52.230;5.194;2023-05-09T08:00:57;101193.44;;;14.02;82.02
53647;BME280;39550;52.230;5.194;2023-05-09T08:03:23;101201.19;;;14.05;82.39
53647;BME280;39550;52.230;5.194;2023-05-09T08:05:52;101197.75;;;14.06;81.93
53647;BME280;39550;52.230;5.194;2023-05-09T08:08:17;101184.78;;;14.06;82.20
53647;BME280;39550;52.230;5.194;2023-05-09T08:10:42;101184.78;;;14.07;81.89
53647;BME280;39550;52.230;5.194;2023-05-09T08:13:08;101177.00;;;14.09;82.63
53647;BME280;39550;52.230;5.194;2023-05-09T08:15:33;101176.16;;;14.10;82.16
53647;BME280;39550;52.230;5.194;2023-05-09T08:17:58;101166.63;;;14.12;83.00
53647;BME280;39550;52.230;5.194;2023-05-09T08:20:24;101165.78;;;14.11;82.26
53647;BME280;39550;52.230;5.194;2023-05-09T08:22:49;101173.56;;;14.10;81.78
53647;BME280;39550;52.230;5.194;2023-05-09T08:25:14;101170.97;;;14.10;81.96
53647;BME280;39550;52.230;5.194;2023-05-09T08:27:42;101162.31;;;14.09;81.92
53647;BME280;39550;52.230;5.194;2023-05-09T08:30:08;101158.03;;;14.07;82.47
53647;BME280;39550;52.230;5.194;2023-05-09T08:32:33;101156.28;;;14.06;82.42
53647;BME280;39550;52.230;5.194;2023-05-09T08:34:58;101147.66;;;14.07;82.33
53647;BME280;39550;52.230;5.194;2023-05-09T08:37:24;101144.19;;;14.05;83.00
53647;BME280;39550;52.230;5.194;2023-05-09T08:39:51;101137.28;;;14.04;82.23
53647;BME280;39550;52.230;5.194;2023-05-09T08:42:16;101140.75;;;14.04;82.73
53647;BME280;39550;52.230;5.194;2023-05-09T08:44:46;101146.78;;;14.06;82.51
53647;BME280;39550;52.230;5.194;2023-05-09T08:47:12;101137.28;;;14.07;82.54
53647;BME280;39550;52.230;5.194;2023-05-09T08:49:39;101136.41;;;14.08;82.14
53647;BME280;39550;52.230;5.194;2023-05-09T08:52:05;101139.88;;;14.10;82.60
53647;BME280;39550;52.230;5.194;2023-05-09T08:54:30;101132.09;;;14.10;83.00
53647;BME280;39550;52.230;5.194;2023-05-09T08:56:56;101129.53;;;14.07;82.93
53647;BME280;39550;52.230;5.194;2023-05-09T08:59:22;101126.94;;;14.07;83.37
53647;BME280;39550;52.230;5.194;2023-05-09T09:01:47;101127.78;;;14.07;82.58
53647;BME280;39550;52.230;5.194;2023-05-09T09:04:13;101122.59;;;14.07;82.90
53647;BME280;39550;52.230;5.194;2023-05-09T09:06:39;101113.09;;;14.05;82.40
53647;BME280;39550;52.230;5.194;2023-05-09T09:09:05;101123.44;;;14.08;82.89
53647;BME280;39550;52.230;5.194;2023-05-09T09:11:32;101121.75;;;14.07;82.75
53647;BME280;39550;52.230;5.194;2023-05-09T09:14:00;101116.56;;;14.07;82.74
53647;BME280;39550;52.230;5.194;2023-05-09T09:16:27;101113.06;;;14.08;82.72
53647;BME280;39550;52.230;5.194;2023-05-09T09:18:54;101120.84;;;14.08;81.78
53647;BME280;39550;52.230;5.194;2023-05-09T09:21:20;101111.38;;;14.07;82.93
53647;BME280;39550;52.230;5.194;2023-05-09T09:23:46;101103.59;;;14.07;82.27
53647;BME280;39550;52.230;5.194;2023-05-09T09:26:13;101102.72;;;14.08;82.83
53647;BME280;39550;52.230;5.194;2023-05-09T09:28:38;101092.34;;;14.08;82.71
53647;BME280;39550;52.230;5.194;2023-05-09T09:31:24;101093.25;;;14.07;82.09
53647;BME280;39550;52.230;5.194;2023-05-09T09:33:50;101097.53;;;14.05;82.26
53647;BME280;39550;52.230;5.194;2023-05-09T09:36:15;101090.66;;;14.07;82.79
53647;BME280;39550;52.230;5.194;2023-05-09T09:38:42;101094.09;;;14.06;83.66
53647;BME280;39550;52.230;5.194;2023-05-09T09:41:08;101094.09;;;14.06;83.05
53647;BME280;39550;52.230;5.194;2023-05-09T09:43:35;101091.50;;;14.06;82.98
53647;BME280;39550;52.230;5.194;2023-05-09T09:46:02;101084.59;;;14.06;82.70
53647;BME280;39550;52.230;5.194;2023-05-09T09:48:32;101081.97;;;14.08;82.70
53647;BME280;39550;52.230;5.194;2023-05-09T09:51:10;101085.44;;;14.10;81.90
53647;BME280;39550;52.230;5.194;2023-05-09T09:53:39;101087.16;;;14.08;83.27
53647;BME280;39550;52.230;5.194;2023-05-09T09:56:05;101085.47;;;14.08;82.46
53647;BME280;39550;52.230;5.194;2023-05-09T09:58:31;101082.00;;;14.11;82.36
53647;BME280;39550;52.230;5.194;2023-05-09T10:01:10;101074.22;;;14.08;83.54
53647;BME280;39550;52.230;5.194;2023-05-09T10:03:39;101076.78;;;14.08;83.45
53647;BME280;39550;52.230;5.194;2023-05-09T10:06:09;101076.78;;;14.08;83.74
53647;BME280;39550;52.230;5.194;2023-05-09T10:08:35;101073.38;;;14.06;83.00
53647;BME280;39550;52.230;5.194;2023-05-09T10:11:00;101066.44;;;14.05;82.36
53647;BME280;39550;52.230;5.194;2023-05-09T10:13:26;101071.63;;;14.05;82.67
53647;BME280;39550;52.230;5.194;2023-05-09T10:15:53;101074.22;;;14.05;83.10
53647;BME280;39550;52.230;5.194;2023-05-09T10:18:24;101063.00;;;14.06;84.03
53647;BME280;39550;52.230;5.194;2023-05-09T10:20:52;101069.03;;;14.05;83.42
53647;BME280;39550;52.230;5.194;2023-05-09T10:23:18;101064.75;;;14.05;83.54
53647;BME280;39550;52.230;5.194;2023-05-09T10:25:57;101068.19;;;14.06;83.60
53647;BME280;39550;52.230;5.194;2023-05-09T10:28:28;101065.59;;;14.06;83.55
53647;BME280;39550;52.230;5.194;2023-05-09T10:31:57;101067.31;;;14.07;83.38
53647;BME280;39550;52.230;5.194;2023-05-09T10:34:04;101059.56;;;14.01;83.94
53647;BME280;39550;52.230;5.194;2023-05-09T10:36:33;101052.66;;;14.03;82.84
53647;BME280;39550;52.230;5.194;2023-05-09T10:38:59;101056.09;;;14.02;83.47
53647;BME280;39550;52.230;5.194;2023-05-09T10:41:26;101052.63;;;14.00;83.21
53647;BME280;39550;52.230;5.194;2023-05-09T10:43:54;101054.38;;;14.01;83.37
53647;BME280;39550;52.230;5.194;2023-05-09T10:46:21;101044.88;;;13.98;83.37
53647;BME280;39550;52.230;5.194;2023-05-09T10:48:47;101038.84;;;13.98;83.80
53647;BME280;39550;52.230;5.194;2023-05-09T10:51:13;101037.09;;;14.00;84.45
53647;BME280;39550;52.230;5.194;2023-05-09T10:53:49;101037.97;;;14.00;82.99
53647;BME280;39550;52.230;5.194;2023-05-09T10:56:22;101032.78;;;14.03;83.18
53647;BME280;39550;52.230;5.194;2023-05-09T10:58:47;101033.63;;;14.04;83.91
53647;BME280;39550;52.230;5.194;2023-05-09T11:01:13;101034.50;;;14.03;83.71
53647;BME280;39550;52.230;5.194;2023-05-09T11:04:11;101028.44;;;14.04;83.21
53647;BME280;39550;52.230;5.194;2023-05-09T11:09:26;101021.56;;;14.03;83.02
53647;BME280;39550;52.230;5.194;2023-05-09T11:11:56;101018.06;;;14.04;83.77
53647;BME280;39550;52.230;5.194;2023-05-09T11:14:32;101016.38;;;14.03;84.17
53647;BME280;39550;52.230;5.194;2023-05-09T11:17:02;101004.28;;;14.02;85.26
53647;BME280;39550;52.230;5.194;2023-05-09T11:19:55;101016.38;;;14.00;83.96
53647;BME280;39550;52.230;5.194;2023-05-09T11:22:28;101003.44;;;14.01;84.01
53647;BME280;39550;52.230;5.194;2023-05-09T11:25:02;100996.53;;;14.00;83.89
53647;BME280;39550;52.230;5.194;2023-05-09T11:27:36;100993.91;;;14.02;84.34
53647;BME280;39550;52.230;5.194;2023-05-09T11:30:04;100990.47;;;14.03;83.45
53647;BME280;39550;52.230;5.194;2023-05-09T11:32:31;100986.97;;;14.04;83.35
53647;BME280;39550;52.230;5.194;2023-05-09T11:35:11;100986.97;;;14.04;83.62
53647;BME280;39550;52.230;5.194;2023-05-09T11:40:11;100978.38;;;14.02;83.20
53647;BME280;39550;52.230;5.194;2023-05-09T11:42:41;100972.31;;;14.03;83.32
53647;BME280;39550;52.230;5.194;2023-05-09T11:45:07;100974.03;;;14.02;83.60
53647;BME280;39550;52.230;5.194;2023-05-09T11:47:35;100972.31;;;14.04;82.81
53647;BME280;39550;52.230;5.194;2023-05-09T11:50:01;100968.88;;;14.05;83.57
53647;BME280;39550;52.230;5.194;2023-05-09T11:52:26;100977.50;;;14.04;84.31
53647;BME280;39550;52.230;5.194;2023-05-09T11:54:51;100968.00;;;14.02;83.45
53647;BME280;39550;52.230;5.194;2023-05-09T11:57:17;100964.53;;;14.00;83.45
53647;BME280;39550;52.230;5.194;2023-05-09T11:59:43;100962.84;;;14.00;83.98
53647;BME280;39550;52.230;5.194;2023-05-09T12:02:09;100964.53;;;14.00;84.94
53647;BME280;39550;52.230;5.194;2023-05-09T12:04:35;100954.19;;;14.00;84.62
53647;BME280;39550;52.230;5.194;2023-05-09T12:07:01;100956.78;;;14.03;83.64
53647;BME280;39550;52.230;5.194;2023-05-09T12:09:31;100952.47;;;14.02;83.97
53647;BME280;39550;52.230;5.194;2023-05-09T12:11:57;100949.00;;;14.00;85.60
53647;BME280;39550;52.230;5.194;2023-05-09T12:14:28;100952.47;;;14.00;84.08
53647;BME280;39550;52.230;5.194;2023-05-09T12:16:53;100946.44;;;13.96;83.33
53647;BME280;39550;52.230;5.194;2023-05-09T12:19:19;100948.16;;;13.98;84.67
53647;BME280;39550;52.230;5.194;2023-05-09T12:21:45;100939.50;;;14.00;84.49
53647;BME280;39550;52.230;5.194;2023-05-09T12:24:10;100934.34;;;13.99;84.09
53647;BME280;39550;52.230;5.194;2023-05-09T12:26:35;100936.06;;;13.96;84.20
53647;BME280;39550;52.230;5.194;2023-05-09T12:29:01;100942.97;;;13.98;85.12
53647;BME280;39550;52.230;5.194;2023-05-09T12:31:26;100936.06;;;13.96;84.48
53647;BME280;39550;52.230;5.194;2023-05-09T12:33:53;100929.19;;;13.97;83.76
53647;BME280;39550;52.230;5.194;2023-05-09T12:36:18;100926.56;;;13.99;84.42
53647;BME280;39550;52.230;5.194;2023-05-09T12:39:06;100936.06;;;13.96;84.42
53647;BME280;39550;52.230;5.194;2023-05-09T12:41:33;100935.22;;;13.98;84.88
53647;BME280;39550;52.230;5.194;2023-05-09T12:43:58;100932.59;;;13.99;84.32
53647;BME280;39550;52.230;5.194;2023-05-09T12:46:24;100929.13;;;14.03;83.99
53647;BME280;39550;52.230;5.194;2023-05-09T12:48:49;100929.97;;;14.04;84.17
53647;BME280;39550;52.230;5.194;2023-05-09T12:51:19;100928.28;;;14.03;84.29
53647;BME280;39550;52.230;5.194;2023-05-09T12:53:45;100923.09;;;14.03;84.27
53647;BME280;39550;52.230;5.194;2023-05-09T12:56:13;100919.63;;;14.04;84.22
53647;BME280;39550;52.230;5.194;2023-05-09T12:58:47;100918.75;;;14.05;85.21
53647;BME280;39550;52.230;5.194;2023-05-09T13:01:12;100913.56;;;14.05;84.21